createdAt,value
2018-02-23T00:00:24.719Z,0.00
2018-02-23T00:02:17.691Z,0.00
2018-02-23T00:03:17.649Z,0.00
2018-02-23T00:05:10.589Z,0.00
2018-02-23T00:06:10.540Z,0.00
2018-02-23T00:08:03.333Z,0.00
2018-02-23T00:09:03.280Z,0.00
2018-02-23T00:10:56.486Z,0.00
2018-02-23T00:11:56.395Z,0.00
2018-02-23T00:13:49.289Z,0.00
2018-02-23T00:14:49.248Z,0.00
2018-02-23T00:16:42.106Z,0.00
2018-02-23T00:17:41.990Z,0.00
2018-02-23T00:19:34.941Z,0.00
2018-02-23T00:20:34.886Z,0.00
2018-02-23T00:22:27.869Z,0.00
2018-02-23T00:23:27.777Z,0.00
2018-02-23T00:25:20.738Z,0.00
2018-02-23T00:26:20.671Z,0.00
2018-02-23T00:28:13.606Z,0.00
2018-02-23T00:29:13.572Z,0.00
2018-02-23T00:31:06.724Z,0.00
2018-02-23T00:32:06.625Z,0.00
2018-02-23T00:33:59.591Z,0.00
2018-02-23T00:34:59.535Z,0.00
2018-02-23T00:36:52.491Z,0.00
2018-02-23T00:37:52.436Z,0.00
2018-02-23T00:39:45.568Z,0.00
2018-02-23T00:40:45.496Z,0.00
2018-02-23T00:42:38.471Z,0.00
2018-02-23T00:43:38.405Z,0.00
2018-02-23T00:45:31.327Z,0.00
2018-02-23T00:46:31.290Z,0.00
2018-02-23T00:48:24.421Z,0.00
2018-02-23T00:49:24.350Z,0.00
2018-02-23T00:51:17.304Z,0.00
2018-02-23T00:52:17.242Z,0.00
2018-02-23T00:54:10.172Z,0.00
2018-02-23T00:55:10.190Z,0.00
2018-02-23T00:57:03.306Z,0.00
2018-02-23T00:58:03.212Z,0.00
2018-02-23T00:59:56.315Z,0.00
2018-02-23T01:00:56.267Z,0.00
2018-02-23T01:02:49.072Z,0.00
2018-02-23T01:03:49.001Z,0.00
2018-02-23T01:05:42.188Z,0.00
2018-02-23T01:06:42.040Z,0.00
2018-02-23T01:08:35.001Z,0.00
2018-02-23T01:09:34.926Z,0.00
2018-02-23T01:11:27.854Z,0.00
2018-02-23T01:12:27.817Z,0.00
2018-02-23T01:14:21.096Z,0.00
2018-02-23T01:15:20.906Z,0.00
2018-02-23T01:17:13.709Z,0.00
2018-02-23T01:18:13.663Z,0.00
2018-02-23T01:20:06.630Z,0.00
2018-02-23T01:21:06.566Z,0.00
2018-02-23T01:22:59.369Z,0.00
2018-02-23T01:23:59.309Z,0.00
2018-02-23T01:25:52.619Z,0.00
2018-02-23T01:26:52.561Z,0.00
2018-02-23T01:28:45.521Z,0.00
2018-02-23T01:29:45.461Z,0.00
2018-02-23T01:31:38.741Z,0.00
2018-02-23T01:32:38.693Z,0.00
2018-02-23T01:34:31.502Z,0.00
2018-02-23T01:35:31.442Z,0.00
2018-02-23T01:37:24.380Z,0.00
2018-02-23T01:38:24.346Z,0.00
2018-02-23T01:40:17.350Z,0.00
2018-02-23T01:41:17.310Z,0.00
2018-02-23T01:43:10.319Z,0.00
2018-02-23T01:44:10.265Z,0.00
2018-02-23T01:46:03.080Z,0.00
2018-02-23T01:47:03.008Z,0.00
2018-02-23T01:48:55.994Z,0.00
2018-02-23T01:49:55.918Z,0.00
2018-02-23T01:51:49.141Z,0.00
2018-02-23T01:52:49.014Z,0.00
2018-02-23T01:54:42.832Z,0.00
2018-02-23T01:55:41.915Z,0.00
2018-02-23T01:57:34.860Z,0.00
2018-02-23T01:58:34.790Z,0.00
2018-02-23T02:00:27.916Z,0.00
2018-02-23T02:01:27.871Z,0.00
2018-02-23T02:03:20.851Z,0.00
2018-02-23T02:04:20.787Z,0.00
2018-02-23T02:06:13.765Z,0.00
2018-02-23T02:07:13.672Z,0.00
2018-02-23T02:09:06.810Z,0.00
2018-02-23T02:10:06.757Z,0.00
2018-02-23T02:11:59.726Z,0.00
2018-02-23T02:12:59.645Z,0.00
2018-02-23T02:14:52.603Z,0.00
2018-02-23T02:15:52.532Z,0.00
2018-02-23T02:17:45.713Z,0.00
2018-02-23T02:18:45.569Z,0.00
2018-02-23T02:20:38.511Z,0.00
2018-02-23T02:21:38.436Z,0.00
2018-02-23T02:23:31.396Z,0.00
2018-02-23T02:24:31.366Z,0.00
2018-02-23T02:26:24.145Z,0.00
2018-02-23T02:27:24.103Z,0.00
2018-02-23T02:29:16.902Z,0.00
2018-02-23T02:30:16.837Z,0.00
2018-02-23T02:32:09.827Z,0.00
2018-02-23T02:33:09.737Z,0.00
2018-02-23T02:35:02.685Z,0.00
2018-02-23T02:36:02.640Z,0.00
2018-02-23T02:37:55.602Z,0.00
2018-02-23T02:38:55.527Z,0.00
2018-02-23T02:40:48.332Z,0.00
2018-02-23T02:41:48.282Z,0.00
2018-02-23T02:43:41.105Z,0.00
2018-02-23T02:44:41.036Z,0.00
2018-02-23T02:46:33.996Z,0.00
2018-02-23T02:47:33.926Z,0.00
2018-02-23T02:49:26.887Z,0.00
2018-02-23T02:50:26.926Z,0.00
2018-02-23T02:52:19.801Z,0.00
2018-02-23T02:53:19.736Z,0.00
2018-02-23T02:55:12.567Z,0.00
2018-02-23T02:56:12.527Z,0.00
2018-02-23T02:58:05.483Z,0.00
2018-02-23T02:59:05.416Z,0.00
2018-02-23T03:00:58.350Z,0.00
2018-02-23T03:01:58.308Z,0.00
2018-02-23T03:03:51.612Z,0.00
2018-02-23T03:04:51.552Z,0.00
2018-02-23T03:06:44.497Z,0.00
2018-02-23T03:07:44.452Z,0.00
2018-02-23T03:09:37.384Z,0.00
2018-02-23T03:10:37.332Z,0.00
2018-02-23T03:12:30.460Z,0.00
2018-02-23T03:13:30.401Z,0.00
2018-02-23T03:15:23.358Z,0.00
2018-02-23T03:16:23.295Z,0.00
2018-02-23T03:18:16.261Z,0.00
2018-02-23T03:19:16.201Z,0.00
2018-02-23T03:21:09.336Z,0.00
2018-02-23T03:22:09.291Z,0.00
2018-02-23T03:24:02.257Z,0.00
2018-02-23T03:25:02.188Z,0.00
2018-02-23T03:26:54.982Z,0.00
2018-02-23T03:27:54.942Z,0.00
2018-02-23T03:29:48.166Z,0.00
2018-02-23T03:30:48.018Z,0.00
2018-02-23T03:32:40.975Z,0.00
2018-02-23T03:33:40.910Z,0.00
2018-02-23T03:35:33.891Z,0.00
2018-02-23T03:36:33.818Z,0.00
2018-02-23T03:38:27.055Z,0.00
2018-02-23T03:39:26.887Z,0.00
2018-02-23T03:41:19.832Z,0.00
2018-02-23T03:42:19.772Z,0.00
2018-02-23T03:44:12.731Z,0.00
2018-02-23T03:45:12.677Z,0.00
2018-02-23T03:47:05.905Z,0.00
2018-02-23T03:48:05.804Z,0.00
2018-02-23T03:49:58.762Z,0.00
2018-02-23T03:50:58.698Z,0.00
2018-02-23T03:52:51.627Z,0.00
2018-02-23T03:53:51.578Z,0.00
2018-02-23T03:55:44.797Z,0.00
2018-02-23T03:56:44.673Z,0.00
2018-02-23T03:58:37.601Z,0.00
2018-02-23T03:59:37.562Z,0.00
2018-02-23T04:01:30.542Z,0.00
2018-02-23T04:02:30.481Z,0.00
2018-02-23T04:04:23.584Z,0.00
2018-02-23T04:05:23.542Z,0.00
2018-02-23T04:07:16.348Z,0.00
2018-02-23T04:08:16.294Z,0.00
2018-02-23T04:10:09.338Z,0.00
2018-02-23T04:11:09.244Z,0.00
2018-02-23T04:13:02.437Z,0.00
2018-02-23T04:14:02.344Z,0.00
2018-02-23T04:15:55.296Z,0.00
2018-02-23T04:16:55.236Z,0.00
2018-02-23T04:18:48.185Z,0.00
2018-02-23T04:19:48.141Z,0.00
2018-02-23T04:21:41.300Z,0.00
2018-02-23T04:22:41.224Z,0.00
2018-02-23T04:24:34.181Z,0.00
2018-02-23T04:25:34.142Z,0.00
2018-02-23T04:27:26.955Z,0.00
2018-02-23T04:28:26.909Z,0.00
2018-02-23T04:30:19.817Z,0.00
2018-02-23T04:31:19.783Z,0.00
2018-02-23T04:33:12.743Z,0.00
2018-02-23T04:34:12.586Z,0.00
2018-02-23T04:36:05.588Z,0.00
2018-02-23T04:37:05.514Z,0.00
2018-02-23T04:38:58.302Z,0.00
2018-02-23T04:39:58.260Z,0.00
2018-02-23T04:41:51.243Z,0.00
2018-02-23T04:42:51.155Z,0.00
2018-02-23T04:44:44.296Z,0.00
2018-02-23T04:45:44.247Z,0.00
2018-02-23T04:47:37.201Z,0.00
2018-02-23T04:48:37.144Z,0.00
2018-02-23T04:50:30.082Z,0.00
2018-02-23T04:51:30.033Z,0.00
2018-02-23T04:53:22.846Z,0.00
2018-02-23T04:54:22.786Z,0.00
2018-02-23T04:56:15.574Z,0.00
2018-02-23T04:57:15.521Z,0.00
2018-02-23T04:59:08.492Z,0.00
2018-02-23T05:00:08.438Z,0.00
2018-02-23T05:02:01.399Z,0.00
2018-02-23T05:03:01.354Z,0.00
2018-02-23T05:04:54.276Z,0.00
2018-02-23T05:05:54.233Z,0.00
2018-02-23T05:07:47.047Z,0.00
2018-02-23T05:08:46.982Z,0.00
2018-02-23T05:10:39.924Z,0.00
2018-02-23T05:11:39.881Z,0.00
2018-02-23T05:13:32.852Z,0.00
2018-02-23T05:14:32.778Z,0.00
2018-02-23T05:16:25.562Z,0.00
2018-02-23T05:17:25.535Z,0.00
2018-02-23T05:19:18.778Z,0.00
2018-02-23T05:20:18.617Z,0.00
2018-02-23T05:22:11.602Z,0.00
2018-02-23T05:23:11.562Z,0.00
2018-02-23T05:25:04.516Z,0.00
2018-02-23T05:26:04.458Z,0.00
2018-02-23T05:27:57.625Z,0.00
2018-02-23T05:28:57.573Z,0.00
2018-02-23T05:30:50.538Z,0.00
2018-02-23T05:31:50.483Z,0.00
2018-02-23T05:33:43.429Z,0.00
2018-02-23T05:34:43.392Z,0.00
2018-02-23T05:36:36.236Z,0.00
2018-02-23T05:37:36.168Z,0.00
2018-02-23T05:39:29.137Z,0.00
2018-02-23T05:40:29.074Z,0.00
2018-02-23T05:42:22.012Z,0.00
2018-02-23T05:43:21.968Z,0.00
2018-02-23T05:45:14.913Z,0.00
2018-02-23T05:46:14.855Z,0.00
2018-02-23T05:48:07.668Z,0.00
2018-02-23T05:49:07.608Z,0.00
2018-02-23T05:51:00.603Z,0.00
2018-02-23T05:52:00.523Z,0.00
2018-02-23T05:53:53.521Z,0.00
2018-02-23T05:54:53.477Z,0.00
2018-02-23T05:56:46.322Z,0.00
2018-02-23T05:57:46.221Z,0.00
2018-02-23T05:59:39.012Z,0.00
2018-02-23T06:00:38.961Z,0.00
2018-02-23T06:02:31.816Z,4.00
2018-02-23T06:03:31.768Z,0.00
2018-02-23T06:05:25.093Z,0.00
2018-02-23T06:06:25.013Z,4.00
2018-02-23T06:08:17.817Z,8.00
2018-02-23T06:09:17.772Z,8.00
2018-02-23T06:11:10.902Z,8.00
2018-02-23T06:12:10.837Z,12.00
2018-02-23T06:14:03.776Z,16.00
2018-02-23T06:15:03.724Z,16.00
2018-02-23T06:16:57.178Z,24.00
2018-02-23T06:17:56.968Z,24.00
2018-02-23T06:19:49.922Z,36.00
2018-02-23T06:20:49.889Z,40.00
2018-02-23T06:22:42.832Z,48.00
2018-02-23T06:23:42.771Z,56.00
2018-02-23T06:25:36.029Z,72.00
2018-02-23T06:26:35.869Z,80.00
2018-02-23T06:28:28.823Z,100.00
2018-02-23T06:29:28.772Z,112.00
2018-02-23T06:31:21.586Z,132.00
2018-02-23T06:32:21.528Z,148.00
2018-02-23T06:34:14.473Z,172.00
2018-02-23T06:35:14.434Z,188.00
2018-02-23T06:37:07.253Z,220.00
2018-02-23T06:38:07.180Z,232.00
2018-02-23T06:40:00.457Z,268.00
2018-02-23T06:41:00.424Z,288.00
2018-02-23T06:42:53.502Z,328.00
2018-02-23T06:43:53.443Z,348.00
2018-02-23T06:45:46.408Z,384.00
2018-02-23T06:46:46.352Z,408.00
2018-02-23T06:48:39.302Z,452.00
2018-02-23T06:49:39.408Z,476.00
2018-02-23T06:51:32.235Z,520.00
2018-02-23T06:52:32.148Z,544.00
2018-02-23T06:54:24.944Z,592.00
2018-02-23T06:55:24.893Z,620.00
2018-02-23T06:57:17.703Z,660.00
2018-02-23T06:58:17.642Z,680.00
2018-02-23T07:00:10.597Z,720.00
2018-02-23T07:01:10.542Z,748.00
2018-02-23T07:03:03.494Z,796.00
2018-02-23T07:04:03.448Z,824.00
2018-02-23T07:05:56.728Z,872.00
2018-02-23T07:06:56.677Z,900.00
2018-02-23T07:08:49.682Z,948.00
2018-02-23T07:09:49.632Z,976.00
2018-02-23T07:11:42.602Z,1020.00
2018-02-23T07:12:42.564Z,1048.00
2018-02-23T07:14:35.538Z,1092.00
2018-02-23T07:15:35.483Z,1112.00
2018-02-23T07:17:28.492Z,1160.00
2018-02-23T07:18:28.411Z,1184.00
2018-02-23T07:20:21.353Z,1228.00
2018-02-23T07:21:21.317Z,1252.00
2018-02-23T07:23:14.213Z,1300.00
2018-02-23T07:24:14.129Z,1328.00
2018-02-23T07:26:07.082Z,1372.00
2018-02-23T07:27:07.043Z,1400.00
2018-02-23T07:28:59.984Z,1448.00
2018-02-23T07:29:59.934Z,1468.00
2018-02-23T07:31:52.914Z,1516.00
2018-02-23T07:32:52.828Z,1544.00
2018-02-23T07:34:45.639Z,1592.00
2018-02-23T07:35:45.566Z,1612.00
2018-02-23T07:37:38.516Z,1648.00
2018-02-23T07:38:38.482Z,1664.00
2018-02-23T07:40:31.433Z,1692.00
2018-02-23T07:41:31.374Z,1708.00
2018-02-23T07:43:24.203Z,1724.00
2018-02-23T07:44:24.129Z,1732.00
2018-02-23T07:46:17.412Z,1768.00
2018-02-23T07:47:17.213Z,1784.00
2018-02-23T07:49:10.177Z,1808.00
2018-02-23T07:50:10.109Z,1828.00
2018-02-23T07:52:03.079Z,1852.00
2018-02-23T07:53:03.041Z,1868.00
2018-02-23T07:54:56.333Z,1900.00
2018-02-23T07:55:56.294Z,1920.00
2018-02-23T07:57:49.253Z,1948.00
2018-02-23T07:58:49.318Z,1964.00
2018-02-23T08:00:42.403Z,1996.00
2018-02-23T08:01:42.275Z,2008.00
2018-02-23T08:03:35.058Z,2036.00
2018-02-23T08:04:35.018Z,2048.00
2018-02-23T08:06:27.829Z,2076.00
2018-02-23T08:07:27.767Z,2096.00
2018-02-23T08:09:20.715Z,2128.00
2018-02-23T08:10:20.675Z,2140.00
2018-02-23T08:12:13.669Z,2176.00
2018-02-23T08:13:13.608Z,2204.00
2018-02-23T08:15:06.440Z,2244.00
2018-02-23T08:16:06.362Z,2260.00
2018-02-23T08:17:59.335Z,2296.00
2018-02-23T08:18:59.304Z,2316.00
2018-02-23T08:20:52.263Z,2360.00
2018-02-23T08:21:52.198Z,2368.00
2018-02-23T08:23:45.338Z,2416.00
2018-02-23T08:24:45.284Z,2436.00
2018-02-23T08:26:38.238Z,2476.00
2018-02-23T08:27:38.184Z,2500.00
2018-02-23T08:29:31.130Z,2528.00
2018-02-23T08:30:31.092Z,2548.00
2018-02-23T08:32:24.301Z,2608.00
2018-02-23T08:33:24.139Z,2628.00
2018-02-23T08:35:17.077Z,2668.00
2018-02-23T08:36:17.033Z,2696.00
2018-02-23T08:38:10.009Z,2728.00
2018-02-23T08:39:09.948Z,2784.00
2018-02-23T08:41:03.123Z,2836.00
2018-02-23T08:42:02.999Z,2848.00
2018-02-23T08:43:56.012Z,2884.00
2018-02-23T08:44:55.964Z,2908.00
2018-02-23T08:46:48.923Z,2968.00
2018-02-23T08:47:48.858Z,3008.00
2018-02-23T08:49:41.675Z,3064.00
2018-02-23T08:50:41.620Z,3088.00
2018-02-23T08:52:34.436Z,3104.00
2018-02-23T08:53:34.383Z,3132.00
2018-02-23T08:55:27.306Z,3180.00
2018-02-23T08:56:27.263Z,3208.00
2018-02-23T08:58:20.230Z,3264.00
2018-02-23T08:59:20.275Z,3292.00
2018-02-23T09:01:13.172Z,3316.00
2018-02-23T09:02:13.108Z,3348.00
2018-02-23T09:04:05.916Z,3376.00
2018-02-23T09:05:05.852Z,3392.00
2018-02-23T09:06:58.807Z,3472.00
2018-02-23T09:07:58.758Z,3496.00
2018-02-23T09:09:51.734Z,3528.00
2018-02-23T09:10:51.675Z,3544.00
2018-02-23T09:12:44.670Z,3572.00
2018-02-23T09:13:44.613Z,3596.00
2018-02-23T09:15:37.642Z,3636.00
2018-02-23T09:16:37.565Z,3688.00
2018-02-23T09:18:30.593Z,3720.00
2018-02-23T09:19:30.501Z,3736.00
2018-02-23T09:21:23.655Z,3728.00
2018-02-23T09:22:23.534Z,3728.00
2018-02-23T09:24:16.484Z,3776.00
2018-02-23T09:25:16.420Z,3820.00
2018-02-23T09:27:09.243Z,3884.00
2018-02-23T09:28:09.163Z,3968.00
2018-02-23T09:30:02.160Z,3992.00
2018-02-23T09:31:02.084Z,4000.00
2018-02-23T09:32:55.300Z,4084.00
2018-02-23T09:33:55.114Z,4132.00
2018-02-23T09:35:48.089Z,4204.00
2018-02-23T09:36:48.061Z,4252.00
2018-02-23T09:38:41.027Z,4308.00
2018-02-23T09:39:40.978Z,4360.00
2018-02-23T09:41:34.155Z,4416.00
2018-02-23T09:42:34.076Z,4412.00
2018-02-23T09:44:27.031Z,4416.00
2018-02-23T09:45:26.962Z,4420.00
2018-02-23T09:47:20.338Z,4508.00
2018-02-23T09:48:20.216Z,4496.00
2018-02-23T09:50:13.270Z,4540.00
2018-02-23T09:51:13.117Z,4576.00
2018-02-23T09:53:06.107Z,4700.00
2018-02-23T09:54:06.045Z,4736.00
2018-02-23T09:55:59.253Z,11596.00
2018-02-23T09:56:59.174Z,66112.00
2018-02-23T09:58:51.970Z,105408.00
2018-02-23T09:59:51.929Z,104608.00
2018-02-23T10:01:44.913Z,104640.00
2018-02-23T10:02:44.844Z,105792.00
2018-02-23T10:04:38.125Z,81600.00
2018-02-23T10:05:38.043Z,93888.00
2018-02-23T10:07:30.999Z,106336.00
2018-02-23T10:08:30.964Z,101760.00
2018-02-23T10:10:23.951Z,105504.00
2018-02-23T10:11:23.916Z,104608.00
2018-02-23T10:13:16.918Z,104992.00
2018-02-23T10:14:16.843Z,105152.00
2018-02-23T10:16:09.836Z,98912.00
2018-02-23T10:17:09.783Z,97152.00
2018-02-23T10:19:02.760Z,106752.00
2018-02-23T10:20:02.722Z,107680.00
2018-02-23T10:21:55.591Z,106176.00
2018-02-23T10:22:55.546Z,105216.00
2018-02-23T10:24:48.502Z,106656.00
2018-02-23T10:25:48.480Z,106400.00
2018-02-23T10:27:41.464Z,105600.00
2018-02-23T10:28:41.415Z,107328.00
2018-02-23T10:30:34.657Z,107104.00
2018-02-23T10:31:34.549Z,107424.00
2018-02-23T10:33:27.534Z,108992.00
2018-02-23T10:34:27.511Z,109280.00
2018-02-23T10:36:20.498Z,107104.00
2018-02-23T10:37:20.449Z,106720.00
2018-02-23T10:39:13.279Z,107744.00
2018-02-23T10:40:13.266Z,108544.00
2018-02-23T10:42:06.249Z,108544.00
2018-02-23T10:43:06.209Z,109760.00
2018-02-23T10:44:59.168Z,108480.00
2018-02-23T10:45:59.144Z,108288.00
2018-02-23T10:47:52.330Z,109952.00
2018-02-23T10:48:52.236Z,109440.00
2018-02-23T10:50:45.228Z,106560.00
2018-02-23T10:51:45.267Z,107808.00
2018-02-23T10:53:38.190Z,108736.00
2018-02-23T10:54:38.150Z,107776.00
2018-02-23T10:56:30.979Z,108512.00
2018-02-23T10:57:30.940Z,106816.00
2018-02-23T10:59:23.936Z,106464.00
2018-02-23T11:00:23.890Z,108352.00
2018-02-23T11:02:16.896Z,106976.00
2018-02-23T11:03:16.845Z,106176.00
2018-02-23T11:05:10.080Z,101536.00
2018-02-23T11:06:09.960Z,105216.00
2018-02-23T11:08:02.971Z,108096.00
2018-02-23T11:09:02.909Z,107488.00
2018-02-23T11:10:55.921Z,107744.00
2018-02-23T11:11:55.877Z,107168.00
2018-02-23T11:13:48.857Z,106944.00
2018-02-23T11:14:48.810Z,108768.00
2018-02-23T11:16:41.836Z,106912.00
2018-02-23T11:17:41.787Z,107936.00
2018-02-23T11:19:34.806Z,105888.00
2018-02-23T11:20:34.750Z,106560.00
2018-02-23T11:22:27.564Z,104640.00
2018-02-23T11:23:27.544Z,105984.00
2018-02-23T11:25:20.539Z,105824.00
2018-02-23T11:26:20.493Z,106880.00
2018-02-23T11:28:13.473Z,104256.00
2018-02-23T11:29:13.444Z,105280.00
2018-02-23T11:31:06.653Z,104832.00
2018-02-23T11:32:06.586Z,105248.00
2018-02-23T11:33:59.625Z,103104.00
2018-02-23T11:34:59.675Z,104640.00
2018-02-23T11:36:52.875Z,102752.00
2018-02-23T11:37:52.829Z,102688.00
2018-02-23T11:39:45.790Z,105248.00
2018-02-23T11:40:45.758Z,105088.00
2018-02-23T11:42:38.747Z,102592.00
2018-02-23T11:43:38.701Z,102208.00
2018-02-23T11:45:31.627Z,103168.00
2018-02-23T11:46:31.521Z,103200.00
2018-02-23T11:48:24.522Z,102304.00
2018-02-23T11:49:24.472Z,100896.00
2018-02-23T11:51:17.453Z,100480.00
2018-02-23T11:52:17.428Z,101696.00
2018-02-23T11:54:10.586Z,102528.00
2018-02-23T11:55:10.532Z,99424.00
2018-02-23T11:57:03.531Z,98688.00
2018-02-23T11:58:03.480Z,99584.00
2018-02-23T11:59:56.455Z,97888.00
2018-02-23T12:00:56.433Z,95264.00
2018-02-23T12:02:49.275Z,93920.00
2018-02-23T12:03:49.219Z,96256.00
2018-02-23T12:05:42.197Z,91584.00
2018-02-23T12:06:42.164Z,92480.00
2018-02-23T12:08:35.151Z,92608.00
2018-02-23T12:09:35.111Z,91808.00
2018-02-23T12:11:28.270Z,76288.00
2018-02-23T12:12:28.228Z,39584.00
2018-02-23T12:14:21.376Z,22048.00
2018-02-23T12:15:21.345Z,21632.00
2018-02-23T12:17:14.469Z,21472.00
2018-02-23T12:18:14.431Z,21536.00
2018-02-23T12:20:07.481Z,21664.00
2018-02-23T12:21:07.416Z,21824.00
2018-02-23T12:23:00.424Z,22368.00
2018-02-23T12:24:00.370Z,22464.00
2018-02-23T12:25:53.409Z,23072.00
2018-02-23T12:26:53.233Z,23712.00
2018-02-23T12:28:46.227Z,24832.00
2018-02-23T12:29:47.310Z,25440.00
2018-02-23T12:31:39.160Z,31296.00
2018-02-23T12:32:39.126Z,60800.00
2018-02-23T12:34:31.957Z,86496.00
2018-02-23T12:35:31.918Z,85280.00
2018-02-23T12:37:24.885Z,79168.00
2018-02-23T12:38:24.715Z,77664.00
2018-02-23T12:40:17.696Z,83008.00
2018-02-23T12:41:17.667Z,79904.00
2018-02-23T12:43:10.617Z,68448.00
2018-02-23T12:44:10.606Z,80256.00
2018-02-23T12:46:03.523Z,66592.00
2018-02-23T12:47:03.469Z,66560.00
2018-02-23T12:48:56.337Z,71808.00
2018-02-23T12:49:56.272Z,60320.00
2018-02-23T12:51:49.265Z,72576.00
2018-02-23T12:52:49.942Z,71840.00
2018-02-23T12:54:42.178Z,67904.00
2018-02-23T12:55:42.143Z,63552.00
2018-02-23T12:57:35.052Z,68128.00
2018-02-23T12:58:34.993Z,60224.00
2018-02-23T13:00:27.979Z,35904.00
2018-02-23T13:01:27.912Z,37632.00
2018-02-23T13:03:20.870Z,30304.00
2018-02-23T13:04:20.944Z,25728.00
2018-02-23T13:06:14.046Z,22592.00
2018-02-23T13:07:13.986Z,20256.00
2018-02-23T13:09:06.790Z,12060.00
2018-02-23T13:10:06.766Z,8788.00
2018-02-23T13:11:59.611Z,8904.00
2018-02-23T13:12:59.541Z,8536.00
2018-02-23T13:14:52.496Z,21760.00
2018-02-23T13:15:52.485Z,28096.00
2018-02-23T13:17:45.392Z,25280.00
2018-02-23T13:18:45.320Z,18112.00
2018-02-23T13:20:38.308Z,14716.00
2018-02-23T13:21:38.265Z,14944.00
2018-02-23T13:23:31.220Z,9516.00
2018-02-23T13:24:31.206Z,8664.00
2018-02-23T13:26:24.005Z,8952.00
2018-02-23T13:27:23.969Z,8296.00
2018-02-23T13:29:16.775Z,8280.00
2018-02-23T13:30:16.739Z,8268.00
2018-02-23T13:32:09.726Z,10544.00
2018-02-23T13:33:09.660Z,11764.00
2018-02-23T13:35:02.639Z,10288.00
2018-02-23T13:36:02.595Z,11656.00
2018-02-23T13:37:55.600Z,13988.00
2018-02-23T13:38:55.558Z,13060.00
2018-02-23T13:40:48.531Z,9396.00
2018-02-23T13:41:48.482Z,8476.00
2018-02-23T13:43:41.492Z,7824.00
2018-02-23T13:44:41.406Z,7772.00
2018-02-23T13:46:34.218Z,8496.00
2018-02-23T13:47:34.186Z,8548.00
2018-02-23T13:49:27.376Z,7944.00
2018-02-23T13:50:27.285Z,7732.00
2018-02-23T13:52:20.258Z,8928.00
2018-02-23T13:53:20.223Z,9764.00
2018-02-23T13:55:13.215Z,10496.00
2018-02-23T13:56:13.134Z,10904.00
2018-02-23T13:58:05.966Z,11668.00
2018-02-23T13:59:05.905Z,12140.00
2018-02-23T14:00:58.883Z,12428.00
2018-02-23T14:01:58.851Z,12304.00
2018-02-23T14:03:51.851Z,13620.00
2018-02-23T14:04:51.782Z,13764.00
2018-02-23T14:06:44.737Z,14208.00
2018-02-23T14:07:44.691Z,14024.00
2018-02-23T14:09:37.651Z,13460.00
2018-02-23T14:10:37.482Z,13736.00
2018-02-23T14:12:30.451Z,15220.00
2018-02-23T14:13:30.434Z,17568.00
2018-02-23T14:15:23.526Z,22944.00
2018-02-23T14:16:23.470Z,23616.00
2018-02-23T14:18:16.327Z,26144.00
2018-02-23T14:19:16.318Z,30208.00
2018-02-23T14:21:09.274Z,26688.00
2018-02-23T14:22:09.237Z,20960.00
2018-02-23T14:24:02.188Z,14596.00
2018-02-23T14:25:02.151Z,12884.00
2018-02-23T14:26:55.457Z,11216.00
2018-02-23T14:27:55.277Z,10864.00
2018-02-23T14:29:48.127Z,10452.00
2018-02-23T14:30:48.055Z,10300.00
2018-02-23T14:32:41.027Z,10152.00
2018-02-23T14:33:41.001Z,10024.00
2018-02-23T14:35:34.286Z,9908.00
2018-02-23T14:36:34.122Z,9876.00
2018-02-23T14:38:26.946Z,9744.00
2018-02-23T14:39:26.907Z,9552.00
2018-02-23T14:41:20.052Z,9328.00
2018-02-23T14:42:19.996Z,9148.00
2018-02-23T14:44:12.824Z,8872.00
2018-02-23T14:45:12.780Z,8748.00
2018-02-23T14:47:05.677Z,8656.00
2018-02-23T14:48:05.552Z,8632.00
2018-02-23T14:49:58.527Z,8444.00
2018-02-23T14:50:58.486Z,8300.00
2018-02-23T14:52:52.309Z,7948.00
2018-02-23T14:53:51.443Z,7760.00
2018-02-23T14:55:44.653Z,7368.00
2018-02-23T14:56:44.572Z,6932.00
2018-02-23T14:58:37.520Z,7232.00
2018-02-23T14:59:37.503Z,7152.00
2018-02-23T15:01:30.483Z,6756.00
2018-02-23T15:02:30.436Z,6284.00
2018-02-23T15:04:23.413Z,6420.00
2018-02-23T15:05:23.278Z,6448.00
2018-02-23T15:07:16.272Z,6024.00
2018-02-23T15:08:16.196Z,6028.00
2018-02-23T15:10:09.253Z,5996.00
2018-02-23T15:11:09.223Z,5968.00
2018-02-23T15:13:02.164Z,5872.00
2018-02-23T15:14:02.082Z,5668.00
2018-02-23T15:15:55.068Z,5180.00
2018-02-23T15:16:55.023Z,5128.00
2018-02-23T15:18:47.998Z,5168.00
2018-02-23T15:19:47.951Z,4712.00
2018-02-23T15:21:41.108Z,4296.00
2018-02-23T15:22:41.030Z,4188.00
2018-02-23T15:24:34.007Z,4092.00
2018-02-23T15:25:33.962Z,4040.00
2018-02-23T15:27:26.757Z,3912.00
2018-02-23T15:28:26.715Z,3832.00
2018-02-23T15:30:19.716Z,3728.00
2018-02-23T15:31:19.653Z,3668.00
2018-02-23T15:33:12.492Z,3560.00
2018-02-23T15:34:12.421Z,3504.00
2018-02-23T15:36:05.397Z,3424.00
2018-02-23T15:37:05.352Z,3376.00
2018-02-23T15:38:58.327Z,3256.00
2018-02-23T15:39:58.267Z,3204.00
2018-02-23T15:41:51.421Z,3172.00
2018-02-23T15:42:51.371Z,3140.00
2018-02-23T15:44:44.354Z,3044.00
2018-02-23T15:45:44.308Z,2984.00
2018-02-23T15:47:37.264Z,2868.00
2018-02-23T15:48:37.253Z,2832.00
2018-02-23T15:50:30.412Z,2780.00
2018-02-23T15:51:30.356Z,2756.00
2018-02-23T15:53:23.310Z,2644.00
2018-02-23T15:54:23.272Z,2600.00
2018-02-23T15:56:16.250Z,2532.00
2018-02-23T15:57:16.191Z,2492.00
2018-02-23T15:59:08.984Z,2404.00
2018-02-23T16:00:08.956Z,2364.00
2018-02-23T16:02:01.920Z,2296.00
2018-02-23T16:03:01.860Z,2244.00
2018-02-23T16:04:54.851Z,2184.00
2018-02-23T16:05:54.777Z,2148.00
2018-02-23T16:07:47.739Z,2080.00
2018-02-23T16:08:47.728Z,2040.00
2018-02-23T16:10:40.508Z,1968.00
2018-02-23T16:11:40.464Z,1928.00
2018-02-23T16:13:33.408Z,1884.00
2018-02-23T16:14:33.417Z,1856.00
2018-02-23T16:16:26.812Z,1792.00
2018-02-23T16:17:26.127Z,1752.00
2018-02-23T16:19:19.101Z,1684.00
2018-02-23T16:20:19.047Z,1640.00
2018-02-23T16:22:12.232Z,1564.00
2018-02-23T16:23:12.145Z,1528.00
2018-02-23T16:25:05.259Z,1456.00
2018-02-23T16:26:05.199Z,1412.00
2018-02-23T16:27:58.223Z,1328.00
2018-02-23T16:28:58.158Z,1264.00
2018-02-23T16:30:51.173Z,1108.00
2018-02-23T16:31:51.102Z,1016.00
2018-02-23T16:33:43.928Z,900.00
2018-02-23T16:34:43.913Z,856.00
2018-02-23T16:36:36.874Z,776.00
2018-02-23T16:44:58.479Z,520.00
2018-02-23T16:45:58.420Z,496.00
2018-02-23T16:47:51.395Z,448.00
2018-02-23T16:48:51.329Z,424.00
2018-02-23T16:50:44.133Z,380.00
2018-02-23T16:51:44.094Z,360.00
2018-02-23T16:53:36.978Z,320.00
2018-02-23T16:54:36.930Z,296.00
2018-02-23T16:56:29.704Z,260.00
2018-02-23T16:57:29.611Z,244.00
2018-02-23T16:59:22.567Z,212.00
2018-02-23T17:00:22.537Z,192.00
2018-02-23T17:02:15.554Z,168.00
2018-02-23T17:03:15.510Z,156.00
2018-02-23T17:05:08.388Z,128.00
2018-02-23T17:06:08.322Z,120.00
2018-02-23T17:08:01.300Z,96.00
2018-02-23T17:09:01.247Z,88.00
2018-02-23T17:10:54.202Z,72.00
2018-02-23T17:11:54.243Z,64.00
2018-02-23T17:13:46.973Z,52.00
2018-02-23T17:14:46.898Z,44.00
2018-02-23T17:16:40.059Z,32.00
2018-02-23T17:17:39.993Z,28.00
2018-02-23T17:19:32.964Z,20.00
2018-02-23T17:20:32.898Z,16.00
2018-02-23T17:22:25.862Z,16.00
2018-02-23T17:23:25.815Z,8.00
2018-02-23T17:25:18.659Z,8.00
2018-02-23T17:26:18.618Z,8.00
2018-02-23T17:28:11.603Z,4.00
2018-02-23T17:29:11.377Z,4.00
2018-02-23T17:31:04.314Z,4.00
2018-02-23T17:32:04.302Z,0.00
2018-02-23T17:33:57.283Z,0.00
2018-02-23T17:34:57.195Z,0.00
2018-02-23T17:36:50.340Z,0.00
2018-02-23T17:37:50.314Z,0.00
2018-02-23T17:39:43.264Z,0.00
2018-02-23T17:40:43.217Z,0.00
2018-02-23T17:42:36.184Z,0.00
2018-02-23T17:43:36.140Z,0.00
2018-02-23T17:45:28.972Z,0.00
2018-02-23T17:46:28.922Z,0.00
2018-02-23T17:48:21.873Z,0.00
2018-02-23T17:49:21.998Z,0.00
2018-02-23T17:51:14.821Z,0.00
2018-02-23T17:52:14.718Z,0.00
2018-02-23T17:54:07.560Z,0.00
2018-02-23T17:55:08.537Z,0.00
2018-02-23T17:57:00.626Z,0.00
2018-02-23T17:58:00.538Z,0.00
2018-02-23T17:59:53.504Z,0.00
2018-02-23T18:00:53.459Z,0.00
2018-02-23T18:02:46.448Z,0.00
2018-02-23T18:03:46.364Z,0.00